Time;durP1;ratioP1;P1;durP2;ratioP2;P2;SDS_P1;SDS_P2;PMS_P1;PMS_P2;Temp;Humidity;BMP_temperature;BMP_pressure;BME280_temperature;BME280_humidity;BME280_pressure;Samples;Min_cycle;Max_cycle;Signal;HPM_P1;HPM_P2
2023/05/26 00:00:58;;;;;;;;;;;;;;;28.75;39.04;96762.53;4997291;28;19957;-61
2023/05/26 00:03:27;;;;;;;;;;;;;;;28.75;39.16;96765.25;4995478;28;20377;-59
2023/05/26 00:05:57;;;;;;;;;;;;;;;28.44;39.56;96775.72;4995930;28;19964;-59
2023/05/26 00:08:25;;;;;;;;;;;;;;;28.23;40.48;96769.16;5000079;28;19965;-61
2023/05/26 00:10:53;;;;;;;;;;;;;;;28.44;39.93;96775.72;5001028;28;20381;-58
2023/05/26 00:13:21;;;;;;;;;;;;;;;28.85;38.94;96757.25;4993845;28;19968;-61
2023/05/26 00:15:49;;;;;;;;;;;;;;;28.75;38.85;96765.25;4997149;28;19967;-58
2023/05/26 00:18:17;;;;;;;;;;;;;;;29.14;38.29;96768.72;4994372;28;19968;-58
2023/05/26 00:20:45;;;;;;;;;;;;;;;29.25;37.98;96767.75;4990657;28;19959;-56
2023/05/26 00:23:15;;;;;;;;;;;;;;;29.19;38.20;96762.53;4997079;28;20368;-59
2023/05/26 00:25:43;;;;;;;;;;;;;;;29.34;38.19;96768.91;4993013;28;19949;-59
2023/05/26 00:28:11;;;;;;;;;;;;;;;29.44;37.46;96762.78;4993855;28;19971;-60
2023/05/26 00:30:39;;;;;;;;;;;;;;;29.39;37.66;96770.88;4991951;28;19965;-60
2023/05/26 00:33:07;;;;;;;;;;;;;;;29.30;37.23;96772.41;4999782;28;19972;-57
2023/05/26 00:35:36;;;;;;;;;;;;;;;29.07;37.27;96766.19;4993205;28;19983;-58
2023/05/26 00:38:04;;;;;;;;;;;;;;;29.24;37.07;96771.53;4998096;28;20469;-54
2023/05/26 00:40:33;;;;;;;;;;;;;;;29.32;37.04;96775.72;4990079;28;19964;-58
2023/05/26 00:43:01;;;;;;;;;;;;;;;29.14;37.65;96773.31;4992739;28;19953;-60
2023/05/26 00:45:29;;;;;;;;;;;;;;;29.49;36.62;96770.13;5000897;28;19957;-61
2023/05/26 00:47:57;;;;;;;;;;;;;;;29.65;36.12;96774.69;4991762;28;19983;-56
2023/05/26 00:50:27;;;;;;;;;;;;;;;29.71;36.17;96762.78;5003334;28;19964;-59
2023/05/26 00:52:55;;;;;;;;;;;;;;;29.84;36.41;96766.16;4994679;28;19964;-61
2023/05/26 00:55:23;;;;;;;;;;;;;;;29.79;36.99;96766.91;5001583;28;19964;-57
2023/05/26 00:57:53;;;;;;;;;;;;;;;29.58;36.53;96763.16;4991991;28;20405;-58
2023/05/26 01:00:22;;;;;;;;;;;;;;;30.06;36.30;96755.13;4989463;28;19976;-60
2023/05/26 01:02:51;;;;;;;;;;;;;;;29.97;36.41;96752.91;4977284;28;19961;-61
2023/05/26 01:05:19;;;;;;;;;;;;;;;30.05;36.34;96757.06;5002456;28;19965;-61
2023/05/26 01:07:47;;;;;;;;;;;;;;;30.29;35.29;96749.34;4992392;28;19968;-58
2023/05/26 01:10:15;;;;;;;;;;;;;;;30.38;35.07;96757.81;4975472;28;19969;-62
2023/05/26 01:12:44;;;;;;;;;;;;;;;30.48;35.44;96758.69;4983525;28;19957;-60
2023/05/26 01:15:14;;;;;;;;;;;;;;;30.51;35.12;96760.88;4993076;28;20375;-58
2023/05/26 01:17:44;;;;;;;;;;;;;;;30.49;35.21;96756.81;4996883;28;19960;-62
2023/05/26 01:20:14;;;;;;;;;;;;;;;30.49;34.76;96754.06;4992236;28;20413;-58
2023/05/26 01:22:52;;;;;;;;;;;;;;;30.43;35.10;96760.56;4996645;28;20373;-58
2023/05/26 01:25:24;;;;;;;;;;;;;;;29.99;36.96;96756.19;4992906;28;20001;-58
2023/05/26 01:28:01;;;;;;;;;;;;;;;29.72;37.17;96752.72;4990469;28;19957;-57
2023/05/26 01:30:29;;;;;;;;;;;;;;;30.11;36.91;96750.56;4991844;28;20406;-62
2023/05/26 01:32:57;;;;;;;;;;;;;;;30.13;35.71;96753.81;4992809;28;19961;-57
2023/05/26 01:35:25;;;;;;;;;;;;;;;30.24;35.27;96761.00;4999138;28;20369;-60
2023/05/26 01:37:53;;;;;;;;;;;;;;;30.36;34.78;96762.72;4989363;28;19961;-60
2023/05/26 01:40:22;;;;;;;;;;;;;;;30.43;34.89;96757.84;4997550;28;19961;-59
2023/05/26 01:42:52;;;;;;;;;;;;;;;30.01;35.78;96762.19;4994504;28;20398;-59
2023/05/26 01:45:22;;;;;;;;;;;;;;;30.18;35.57;96756.63;4994914;28;19952;-61
2023/05/26 01:47:50;;;;;;;;;;;;;;;30.24;35.43;96763.72;4999760;28;19964;-55
2023/05/26 01:50:19;;;;;;;;;;;;;;;30.27;34.87;96763.19;4994025;28;19976;-61
2023/05/26 01:52:47;;;;;;;;;;;;;;;30.46;35.10;96762.78;4992139;28;19965;-59
2023/05/26 01:55:15;;;;;;;;;;;;;;;30.39;35.00;96763.00;4994611;28;20018;-58
2023/05/26 01:57:43;;;;;;;;;;;;;;;30.40;35.21;96758.38;4993275;28;19965;-58
2023/05/26 02:00:12;;;;;;;;;;;;;;;30.23;35.29;96758.53;4993531;28;19965;-58
2023/05/26 02:02:41;;;;;;;;;;;;;;;29.96;35.68;96758.59;4994990;28;19961;-60
2023/05/26 02:05:10;;;;;;;;;;;;;;;29.76;35.92;96757.34;4997614;28;19968;-55
2023/05/26 02:07:40;;;;;;;;;;;;;;;29.67;35.64;96752.69;4998886;28;20056;-55
2023/05/26 02:10:09;;;;;;;;;;;;;;;29.72;35.84;96758.97;4994018;28;19976;-60
2023/05/26 02:12:37;;;;;;;;;;;;;;;29.59;35.59;96762.09;4994865;28;19957;-59
2023/05/26 02:15:05;;;;;;;;;;;;;;;29.44;36.25;96754.63;4994799;28;21735;-60
2023/05/26 02:17:33;;;;;;;;;;;;;;;29.27;36.36;96759.34;5001923;28;19968;-58
2023/05/26 02:20:03;;;;;;;;;;;;;;;29.38;36.14;96754.81;4994700;28;19967;-60
2023/05/26 02:22:31;;;;;;;;;;;;;;;29.30;36.34;96764.28;4996200;28;19957;-58
2023/05/26 02:25:00;;;;;;;;;;;;;;;29.01;37.05;96758.25;4996661;28;19960;-61
2023/05/26 02:27:28;;;;;;;;;;;;;;;28.82;37.30;96755.84;5001031;28;20358;-60
2023/05/26 02:29:56;;;;;;;;;;;;;;;28.81;37.05;96758.81;4995549;28;19957;-60
2023/05/26 02:32:25;;;;;;;;;;;;;;;28.90;37.00;96760.00;5002098;28;19956;-55
2023/05/26 02:34:53;;;;;;;;;;;;;;;28.82;37.01;96753.13;4992144;28;19973;-61
2023/05/26 02:37:22;;;;;;;;;;;;;;;28.54;37.58;96753.34;4995118;28;19956;-60
2023/05/26 02:39:51;;;;;;;;;;;;;;;28.75;36.91;96751.69;4998933;28;22363;-56
2023/05/26 02:42:19;;;;;;;;;;;;;;;28.74;37.18;96752.78;4998799;28;19995;-60
2023/05/26 02:44:47;;;;;;;;;;;;;;;28.77;37.11;96754.97;4998760;28;20378;-58
2023/05/26 02:47:15;;;;;;;;;;;;;;;28.63;37.41;96749.09;4995041;28;19960;-58
2023/05/26 02:49:43;;;;;;;;;;;;;;;28.52;37.21;96759.00;4999453;28;19965;-60
2023/05/26 02:52:11;;;;;;;;;;;;;;;28.12;38.42;96757.34;4990832;28;19965;-57
2023/05/26 02:54:40;;;;;;;;;;;;;;;27.92;38.55;96760.56;4998582;28;19964;-60
2023/05/26 02:57:08;;;;;;;;;;;;;;;28.28;37.50;96771.13;4998080;28;19964;-60
2023/05/26 02:59:36;;;;;;;;;;;;;;;28.28;37.20;96769.22;5005384;28;19957;-59
2023/05/26 03:02:05;;;;;;;;;;;;;;;28.12;37.41;96772.81;4994853;28;19957;-59
2023/05/26 03:04:33;;;;;;;;;;;;;;;28.25;36.76;96768.91;5010269;28;19965;-61
2023/05/26 03:07:01;;;;;;;;;;;;;;;28.11;37.02;96768.44;5001104;28;19961;-61
2023/05/26 03:09:29;;;;;;;;;;;;;;;27.84;37.15;96771.00;5000813;28;19969;-60
2023/05/26 03:11:59;;;;;;;;;;;;;;;28.09;36.83;96767.88;5001537;28;19965;-58
2023/05/26 03:14:27;;;;;;;;;;;;;;;27.82;37.13;96776.69;5007050;28;20669;-61
2023/05/26 03:16:56;;;;;;;;;;;;;;;27.61;37.50;96783.63;4994522;28;19956;-60
2023/05/26 03:19:24;;;;;;;;;;;;;;;27.80;37.24;96776.09;5005125;28;19952;-59
2023/05/26 03:21:52;;;;;;;;;;;;;;;27.96;37.12;96768.22;5005904;28;20627;-60
2023/05/26 03:24:20;;;;;;;;;;;;;;;28.02;37.36;96770.75;5001382;28;20352;-60
2023/05/26 03:26:48;;;;;;;;;;;;;;;28.01;36.84;96784.53;5001555;28;19972;-60
2023/05/26 03:29:17;;;;;;;;;;;;;;;28.10;36.68;96777.63;4993220;28;19972;-60
2023/05/26 03:31:45;;;;;;;;;;;;;;;28.09;36.57;96782.25;4990775;28;19953;-59
2023/05/26 03:34:13;;;;;;;;;;;;;;;28.20;36.59;96779.69;4996370;28;19967;-58
2023/05/26 03:36:45;;;;;;;;;;;;;;;28.26;36.41;96787.66;4995034;28;20002;-57
2023/05/26 03:39:13;;;;;;;;;;;;;;;28.27;36.51;96775.72;4998803;28;19961;-58
2023/05/26 03:41:41;;;;;;;;;;;;;;;28.33;36.30;96782.06;4999852;28;19964;-53
2023/05/26 03:44:09;;;;;;;;;;;;;;;28.27;36.35;96789.28;4990693;28;19964;-60
2023/05/26 03:46:39;;;;;;;;;;;;;;;28.41;36.15;96781.66;4997821;28;19961;-59
2023/05/26 03:49:07;;;;;;;;;;;;;;;28.37;36.16;96785.91;4997977;28;19975;-57
2023/05/26 03:51:35;;;;;;;;;;;;;;;28.37;36.13;96789.44;4994343;28;19965;-56
2023/05/26 03:54:03;;;;;;;;;;;;;;;28.46;36.01;96787.16;4999713;28;20986;-61
2023/05/26 03:56:32;;;;;;;;;;;;;;;28.83;35.21;96790.06;4992418;28;20386;-57
2023/05/26 03:59:00;;;;;;;;;;;;;;;29.58;34.13;96791.16;5002578;28;20361;-58
2023/05/26 04:01:28;;;;;;;;;;;;;;;29.90;33.54;96789.56;4993779;28;19990;-59
2023/05/26 04:03:57;;;;;;;;;;;;;;;30.19;33.74;96777.31;5001302;28;19975;-61
2023/05/26 04:06:27;;;;;;;;;;;;;;;30.30;32.96;96790.97;4996521;28;19961;-60
2023/05/26 04:08:55;;;;;;;;;;;;;;;30.80;32.14;96789.63;4998719;28;20000;-60
2023/05/26 04:11:23;;;;;;;;;;;;;;;30.80;32.20;96792.34;4999207;28;19976;-57
2023/05/26 04:13:51;;;;;;;;;;;;;;;31.07;31.74;96794.91;5001561;28;19969;-58
2023/05/26 04:16:19;;;;;;;;;;;;;;;30.43;32.92;96796.78;4996370;28;19953;-59
2023/05/26 04:18:47;;;;;;;;;;;;;;;30.88;32.11;96803.56;4998245;28;19965;-60
2023/05/26 04:21:16;;;;;;;;;;;;;;;31.56;31.66;96802.69;4997349;28;19983;-57
2023/05/26 04:23:47;;;;;;;;;;;;;;;31.41;31.93;96798.84;4999161;28;19967;-57
2023/05/26 04:26:16;;;;;;;;;;;;;;;31.69;31.42;96810.31;4998055;28;19948;-57
2023/05/26 04:28:45;;;;;;;;;;;;;;;32.30;30.70;96806.81;4999228;28;19960;-59
2023/05/26 04:31:16;;;;;;;;;;;;;;;32.49;30.59;96801.63;4999008;28;19952;-58
2023/05/26 04:33:44;;;;;;;;;;;;;;;33.14;29.75;96802.50;4998046;28;19975;-59
2023/05/26 04:36:16;;;;;;;;;;;;;;;33.30;29.33;96809.50;4994968;28;19953;-57
2023/05/26 04:38:47;;;;;;;;;;;;;;;33.33;29.64;96808.13;4999416;28;19960;-60
2023/05/26 04:41:16;;;;;;;;;;;;;;;33.37;29.06;96809.19;4999399;28;19972;-57
2023/05/26 04:43:44;;;;;;;;;;;;;;;33.25;29.40;96806.00;4998857;28;19968;-59
2023/05/26 04:46:13;;;;;;;;;;;;;;;33.45;29.16;96810.50;4995883;28;19957;-55
2023/05/26 04:48:41;;;;;;;;;;;;;;;33.64;28.98;96808.78;5001565;28;19968;-58
2023/05/26 04:51:09;;;;;;;;;;;;;;;32.89;30.03;96810.78;4998973;28;20362;-58
2023/05/26 04:53:37;;;;;;;;;;;;;;;33.57;29.16;96810.22;4997817;28;19961;-56
2023/05/26 04:56:07;;;;;;;;;;;;;;;33.38;29.23;96810.84;4995622;28;19957;-57
2023/05/26 04:58:36;;;;;;;;;;;;;;;32.58;30.18;96810.88;5002746;28;19968;-60
2023/05/26 05:01:04;;;;;;;;;;;;;;;33.01;29.71;96808.59;4999259;28;19964;-60
2023/05/26 05:03:33;;;;;;;;;;;;;;;33.04;29.65;96810.75;4997459;28;20376;-60
2023/05/26 05:06:02;;;;;;;;;;;;;;;32.17;30.33;96816.38;4994603;28;20329;-58
2023/05/26 05:08:31;;;;;;;;;;;;;;;32.03;30.70;96812.56;4997006;28;20508;-59
2023/05/26 05:10:59;;;;;;;;;;;;;;;31.08;31.75;96821.06;4998623;28;20452;-61
2023/05/26 05:13:29;;;;;;;;;;;;;;;31.49;31.18;96819.31;4997358;28;19950;-57
2023/05/26 05:15:57;;;;;;;;;;;;;;;30.99;31.68;96820.75;4998776;28;19960;-55
2023/05/26 05:18:25;;;;;;;;;;;;;;;30.92;31.93;96825.63;4997498;28;19975;-59
2023/05/26 05:20:53;;;;;;;;;;;;;;;31.27;32.20;96821.41;4995297;28;19964;-59
2023/05/26 05:23:22;;;;;;;;;;;;;;;31.68;31.43;96830.50;4993885;28;19957;-58
2023/05/26 05:25:50;;;;;;;;;;;;;;;31.77;30.60;96828.91;4996900;28;19957;-60
2023/05/26 05:28:18;;;;;;;;;;;;;;;31.33;31.75;96823.91;4991339;28;20087;-56
2023/05/26 05:30:47;;;;;;;;;;;;;;;31.35;31.86;96823.63;4997529;28;19965;-57
2023/05/26 05:33:16;;;;;;;;;;;;;;;31.63;30.98;96823.16;4992434;28;19960;-57
2023/05/26 05:35:45;;;;;;;;;;;;;;;31.79;31.44;96823.97;4994114;28;19957;-54
2023/05/26 05:38:13;;;;;;;;;;;;;;;32.15;30.99;96813.91;4998247;28;19972;-60
2023/05/26 05:40:41;;;;;;;;;;;;;;;32.79;30.28;96815.16;5003216;28;19980;-59
2023/05/26 05:43:09;;;;;;;;;;;;;;;32.48;30.44;96817.16;5003058;28;19965;-59
2023/05/26 05:45:37;;;;;;;;;;;;;;;31.30;31.96;96829.84;5000869;28;19965;-59
2023/05/26 05:48:06;;;;;;;;;;;;;;;31.61;32.09;96835.41;5000196;28;19965;-60
2023/05/26 05:50:34;;;;;;;;;;;;;;;31.48;31.86;96830.47;4999064;28;19964;-57
2023/05/26 05:53:03;;;;;;;;;;;;;;;31.13;32.72;96831.97;4995793;28;19969;-57
2023/05/26 05:55:31;;;;;;;;;;;;;;;31.41;32.80;96825.28;5007583;28;19988;-59
2023/05/26 05:57:59;;;;;;;;;;;;;;;32.18;31.31;96820.75;4998037;28;20357;-61
2023/05/26 06:00:27;;;;;;;;;;;;;;;32.79;30.88;96825.28;4999359;28;20435;-60
2023/05/26 06:02:55;;;;;;;;;;;;;;;31.72;31.98;96828.06;5007160;28;20466;-59
2023/05/26 06:05:25;;;;;;;;;;;;;;;32.62;31.35;96828.31;5001942;28;19968;-60
2023/05/26 06:07:53;;;;;;;;;;;;;;;31.60;32.20;96839.25;5001936;28;19965;-57
2023/05/26 06:10:21;;;;;;;;;;;;;;;31.40;32.51;96837.28;4999882;28;19979;-57
2023/05/26 06:12:49;;;;;;;;;;;;;;;32.17;32.23;96835.47;5003203;28;19967;-58
2023/05/26 06:15:18;;;;;;;;;;;;;;;31.88;32.48;96846.13;4999010;28;19953;-57
2023/05/26 06:17:46;;;;;;;;;;;;;;;32.13;32.27;96832.47;4998301;28;19971;-52
2023/05/26 06:20:14;;;;;;;;;;;;;;;32.24;32.14;96827.81;5000219;28;19965;-57
2023/05/26 06:22:43;;;;;;;;;;;;;;;32.28;31.67;96830.81;5001365;28;19956;-62
2023/05/26 06:25:11;;;;;;;;;;;;;;;30.71;33.73;96838.31;5003700;28;20381;-60
2023/05/26 06:27:40;;;;;;;;;;;;;;;31.71;32.84;96842.78;5000467;28;19973;-57
2023/05/26 06:30:08;;;;;;;;;;;;;;;31.13;33.27;96843.69;4999532;28;20360;-53
2023/05/26 06:32:36;;;;;;;;;;;;;;;31.88;33.33;96849.66;4997510;28;19964;-56
2023/05/26 06:35:05;;;;;;;;;;;;;;;31.33;33.40;96851.16;4999927;28;19963;-57
2023/05/26 06:37:33;;;;;;;;;;;;;;;31.71;33.02;96845.53;4998505;28;19961;-59
2023/05/26 06:40:03;;;;;;;;;;;;;;;33.38;31.36;96842.81;4996992;28;19965;-53
2023/05/26 06:42:31;;;;;;;;;;;;;;;32.35;32.72;96845.84;5001285;28;19967;-59
2023/05/26 06:44:59;;;;;;;;;;;;;;;31.92;32.59;96850.75;5003087;28;19961;-59
2023/05/26 06:47:27;;;;;;;;;;;;;;;31.48;33.40;96844.09;5003672;28;21686;-57
2023/05/26 06:49:55;;;;;;;;;;;;;;;32.72;32.50;96843.88;5002478;28;19972;-59
2023/05/26 06:52:23;;;;;;;;;;;;;;;33.19;31.29;96845.38;5005438;28;19963;-56
2023/05/26 06:54:51;;;;;;;;;;;;;;;33.03;32.13;96847.34;5000778;28;20412;-56
2023/05/26 06:57:21;;;;;;;;;;;;;;;32.73;32.54;96848.25;5001204;28;19984;-58
2023/05/26 06:59:49;;;;;;;;;;;;;;;31.70;33.40;96850.16;5002323;28;19955;-59
2023/05/26 07:02:17;;;;;;;;;;;;;;;33.43;31.74;96842.81;5001737;28;19975;-58
2023/05/26 07:04:45;;;;;;;;;;;;;;;33.81;31.35;96845.88;5004445;28;19969;-55
2023/05/26 07:07:13;;;;;;;;;;;;;;;32.81;32.09;96840.31;5004298;28;20385;-56
2023/05/26 07:09:41;;;;;;;;;;;;;;;33.24;32.53;96834.41;5000439;28;19953;-51
2023/05/26 07:12:10;;;;;;;;;;;;;;;31.66;33.23;96844.44;4998671;28;19965;-56
2023/05/26 07:14:39;;;;;;;;;;;;;;;32.02;33.22;96844.47;5005313;28;19957;-56
2023/05/26 07:17:07;;;;;;;;;;;;;;;33.30;31.47;96842.31;4977819;28;20424;-56
2023/05/26 07:19:35;;;;;;;;;;;;;;;32.42;31.66;96842.03;5001081;28;19968;-51
2023/05/26 07:22:04;;;;;;;;;;;;;;;30.79;34.35;96847.91;5002728;28;20402;-60
2023/05/26 07:24:32;;;;;;;;;;;;;;;31.68;32.88;96844.16;5006089;28;19969;-57
2023/05/26 07:27:00;;;;;;;;;;;;;;;30.96;34.40;96852.06;5001586;28;20051;-59
2023/05/26 07:29:28;;;;;;;;;;;;;;;32.39;32.35;96844.19;4996704;28;19957;-60
2023/05/26 07:31:58;;;;;;;;;;;;;;;34.49;30.26;96843.16;4997852;28;19960;-59
2023/05/26 07:34:26;;;;;;;;;;;;;;;31.37;34.16;96856.88;4998316;28;19961;-58
2023/05/26 07:36:54;;;;;;;;;;;;;;;32.73;32.50;96851.81;5004730;28;19971;-60
2023/05/26 07:39:22;;;;;;;;;;;;;;;34.83;30.52;96845.84;5010864;28;19971;-60
2023/05/26 07:41:50;;;;;;;;;;;;;;;33.68;31.50;96844.59;4999064;28;19969;-56
2023/05/26 07:44:18;;;;;;;;;;;;;;;33.94;30.86;96847.97;4997212;28;19952;-62
2023/05/26 07:46:47;;;;;;;;;;;;;;;35.15;30.14;96849.88;5003857;28;20683;-57
2023/05/26 07:49:16;;;;;;;;;;;;;;;34.02;31.75;96847.38;4995817;28;19956;-55
2023/05/26 07:51:45;;;;;;;;;;;;;;;34.01;30.97;96852.06;5002333;28;19960;-56
2023/05/26 07:54:14;;;;;;;;;;;;;;;33.54;31.15;96847.97;4999237;28;19961;-58
2023/05/26 07:56:42;;;;;;;;;;;;;;;34.36;30.92;96850.13;4999548;28;19960;-60
2023/05/26 07:59:10;;;;;;;;;;;;;;;34.32;31.62;96851.81;4990783;28;19960;-60
2023/05/26 08:01:38;;;;;;;;;;;;;;;33.59;32.13;96849.03;4994248;28;20398;-59
2023/05/26 08:04:06;;;;;;;;;;;;;;;35.31;30.01;96845.84;5003221;28;19979;-59
2023/05/26 08:06:36;;;;;;;;;;;;;;;36.78;28.39;96841.06;4992817;28;20432;-62
2023/05/26 08:09:04;;;;;;;;;;;;;;;36.44;28.88;96836.72;5002636;28;19969;-60
2023/05/26 08:11:32;;;;;;;;;;;;;;;35.24;30.35;96855.50;4993814;28;19969;-57
2023/05/26 08:14:00;;;;;;;;;;;;;;;34.92;30.26;96848.75;5000554;28;19971;-58
2023/05/26 08:16:28;;;;;;;;;;;;;;;35.36;30.46;96848.50;4999901;28;19987;-53
2023/05/26 08:18:56;;;;;;;;;;;;;;;35.26;29.72;96842.34;4996614;28;20520;-60
2023/05/26 08:21:25;;;;;;;;;;;;;;;34.39;30.84;96840.50;4997428;28;19968;-60
2023/05/26 08:23:55;;;;;;;;;;;;;;;34.88;30.46;96844.97;5001906;28;19965;-60
2023/05/26 08:26:23;;;;;;;;;;;;;;;35.85;29.52;96850.00;4997598;28;19964;-60
2023/05/26 08:28:50;;;;;;;;;;;;;;;37.09;27.85;96835.00;5000689;28;19960;-62
2023/05/26 08:31:19;;;;;;;;;;;;;;;37.77;27.49;96837.63;5001381;28;19964;-58
2023/05/26 08:33:47;;;;;;;;;;;;;;;36.81;28.49;96843.22;4996390;28;19957;-60
2023/05/26 08:36:15;;;;;;;;;;;;;;;35.49;29.39;96843.41;5000659;28;19960;-60
2023/05/26 08:38:43;;;;;;;;;;;;;;;36.47;28.97;96854.53;4997077;28;20667;-59
2023/05/26 08:41:12;;;;;;;;;;;;;;;37.30;27.85;96838.94;4990231;28;19959;-59
2023/05/26 08:43:42;;;;;;;;;;;;;;;36.67;28.42;96839.63;4992613;28;19948;-59
2023/05/26 08:46:14;;;;;;;;;;;;;;;35.87;29.04;96852.47;4996409;28;20365;-59
2023/05/26 08:48:43;;;;;;;;;;;;;;;36.03;29.30;96853.06;4997133;28;19976;-56
2023/05/26 08:51:11;;;;;;;;;;;;;;;34.82;30.41;96846.13;4994404;28;19979;-57
2023/05/26 08:53:40;;;;;;;;;;;;;;;36.76;28.86;96838.63;4991893;28;19956;-58
2023/05/26 08:56:08;;;;;;;;;;;;;;;36.54;28.19;96842.06;4995779;28;19973;-56
2023/05/26 08:58:37;;;;;;;;;;;;;;;36.69;28.38;96838.22;5003187;28;20015;-61
2023/05/26 09:01:06;;;;;;;;;;;;;;;35.84;29.50;96842.09;4997324;28;20472;-57
2023/05/26 09:03:34;;;;;;;;;;;;;;;36.32;29.59;96831.72;4996447;28;19961;-58
2023/05/26 09:06:02;;;;;;;;;;;;;;;37.27;27.92;96832.13;4991333;28;19960;-55
2023/05/26 09:08:31;;;;;;;;;;;;;;;36.94;28.72;96842.41;4991470;28;19964;-59
2023/05/26 09:11:00;;;;;;;;;;;;;;;36.57;29.48;96837.88;4998936;28;19968;-58
2023/05/26 09:13:32;;;;;;;;;;;;;;;35.34;30.07;96844.41;4996115;28;19972;-61
2023/05/26 09:16:01;;;;;;;;;;;;;;;37.29;27.80;96835.38;4994293;28;19964;-58
2023/05/26 09:18:44;;;;;;;;;;;;;;;37.67;28.07;96842.56;4994999;28;19953;-56
2023/05/26 09:21:12;;;;;;;;;;;;;;;37.88;26.91;96843.72;4994874;28;19977;-59
2023/05/26 09:23:40;;;;;;;;;;;;;;;36.88;28.58;96845.56;4997984;28;20401;-60
2023/05/26 09:26:08;;;;;;;;;;;;;;;38.33;27.32;96838.22;4994794;28;19972;-56
2023/05/26 09:28:36;;;;;;;;;;;;;;;36.76;28.34;96848.81;4995647;28;19964;-60
2023/05/26 09:31:08;;;;;;;;;;;;;;;35.90;29.44;96846.41;4996290;28;20522;-56
2023/05/26 09:33:42;;;;;;;;;;;;;;;35.98;29.34;96844.91;4995046;28;19956;-59
2023/05/26 09:36:10;;;;;;;;;;;;;;;36.39;28.57;96841.50;4997475;28;19957;-61
2023/05/26 09:38:38;;;;;;;;;;;;;;;36.28;28.88;96843.59;4996261;28;19968;-57
2023/05/26 09:41:06;;;;;;;;;;;;;;;35.68;29.50;96838.75;4994209;28;19969;-60
2023/05/26 09:43:34;;;;;;;;;;;;;;;37.55;27.71;96834.06;5001015;28;20553;-59
2023/05/26 09:46:03;;;;;;;;;;;;;;;37.78;28.18;96838.44;5002984;28;19921;-60
2023/05/26 09:48:35;;;;;;;;;;;;;;;37.51;28.68;96834.66;4995511;28;19960;-50
2023/05/26 09:51:04;;;;;;;;;;;;;;;37.53;28.48;96837.09;4989473;28;19965;-57
2023/05/26 09:53:32;;;;;;;;;;;;;;;36.79;28.39;96839.97;4994079;28;20405;-59
2023/05/26 09:56:01;;;;;;;;;;;;;;;36.72;29.55;96842.28;4999888;28;19972;-60
2023/05/26 09:58:29;;;;;;;;;;;;;;;36.79;29.31;96835.28;4997800;28;19956;-60
2023/05/26 10:00:57;;;;;;;;;;;;;;;37.50;27.62;96844.03;4997503;28;20009;-58
2023/05/26 10:03:25;;;;;;;;;;;;;;;38.05;27.62;96839.50;4992892;28;20381;-58
2023/05/26 10:05:56;;;;;;;;;;;;;;;36.50;29.37;96843.78;4990190;28;19967;-56
2023/05/26 10:08:26;;;;;;;;;;;;;;;37.27;28.66;96837.63;4993490;28;20597;-59
2023/05/26 10:10:54;;;;;;;;;;;;;;;38.44;26.51;96830.53;4995313;28;19965;-58
2023/05/26 10:13:22;;;;;;;;;;;;;;;38.02;26.88;96831.84;4994246;28;19968;-58
2023/05/26 10:15:50;;;;;;;;;;;;;;;36.69;28.05;96829.97;4995998;28;19972;-56
2023/05/26 10:18:18;;;;;;;;;;;;;;;37.57;27.07;96840.84;4990525;28;19960;-57
2023/05/26 10:20:47;;;;;;;;;;;;;;;37.02;27.20;96838.97;4994969;28;19988;-56
2023/05/26 10:23:17;;;;;;;;;;;;;;;37.70;27.60;96836.44;4997390;28;19964;-56
2023/05/26 10:25:47;;;;;;;;;;;;;;;37.15;27.99;96833.78;4990866;28;19957;-61
2023/05/26 10:28:20;;;;;;;;;;;;;;;36.59;28.05;96830.97;4996602;28;20383;-55
2023/05/26 10:30:48;;;;;;;;;;;;;;;36.72;28.36;96834.88;4998088;28;20048;-59
2023/05/26 10:33:16;;;;;;;;;;;;;;;36.32;29.03;96842.69;4999162;28;19952;-61
2023/05/26 10:35:52;;;;;;;;;;;;;;;37.80;27.04;96833.44;4995127;28;19956;-60
2023/05/26 10:38:26;;;;;;;;;;;;;;;37.09;26.94;96826.75;4993170;28;19972;-59
2023/05/26 10:40:54;;;;;;;;;;;;;;;36.82;27.58;96828.34;5004110;28;19964;-59
2023/05/26 10:43:23;;;;;;;;;;;;;;;38.85;25.74;96826.69;5000113;28;19957;-57
2023/05/26 10:45:52;;;;;;;;;;;;;;;38.18;27.17;96825.66;4997373;28;19961;-55
2023/05/26 10:48:20;;;;;;;;;;;;;;;38.33;27.04;96818.94;5002997;28;19964;-61
2023/05/26 10:51:07;;;;;;;;;;;;;;;36.67;27.75;96823.97;4997479;28;20601;-61
2023/05/26 10:53:40;;;;;;;;;;;;;;;36.70;27.96;96823.34;4999620;28;19976;-54
2023/05/26 10:56:09;;;;;;;;;;;;;;;36.73;26.83;96817.25;4996117;28;20424;-58
2023/05/26 10:58:38;;;;;;;;;;;;;;;37.56;26.38;96819.16;4999877;28;19965;-57
2023/05/26 11:01:07;;;;;;;;;;;;;;;37.74;26.14;96816.22;5001674;28;20377;-54
2023/05/26 11:03:36;;;;;;;;;;;;;;;38.07;26.34;96809.72;4996661;28;21659;-59
2023/05/26 11:06:04;;;;;;;;;;;;;;;39.18;25.39;96811.38;4994985;28;20914;-57
2023/05/26 11:08:40;;;;;;;;;;;;;;;38.57;25.99;96806.78;4999452;28;20405;-57
2023/05/26 11:11:08;;;;;;;;;;;;;;;38.51;26.60;96803.34;4999699;28;19968;-54
2023/05/26 11:13:40;;;;;;;;;;;;;;;38.86;25.35;96809.84;5002239;28;20417;-55
2023/05/26 11:16:19;;;;;;;;;;;;;;;38.09;26.04;96805.50;4995345;28;19956;-59
2023/05/26 11:18:48;;;;;;;;;;;;;;;39.13;24.83;96800.53;4997372;28;19957;-56
2023/05/26 11:21:16;;;;;;;;;;;;;;;38.65;24.77;96803.25;4999440;28;19988;-59
2023/05/26 11:23:46;;;;;;;;;;;;;;;36.78;26.78;96810.84;4991647;28;19964;-60
2023/05/26 11:26:15;;;;;;;;;;;;;;;37.03;27.37;96807.63;4998074;28;19964;-58
2023/05/26 11:28:43;;;;;;;;;;;;;;;38.30;25.93;96808.53;4998417;28;20037;-54
2023/05/26 11:31:12;;;;;;;;;;;;;;;39.00;25.08;96808.91;5004724;28;19965;-58
2023/05/26 11:33:41;;;;;;;;;;;;;;;38.48;25.30;96812.25;4996014;28;19961;-57
2023/05/26 11:36:10;;;;;;;;;;;;;;;39.48;24.79;96811.66;4990438;28;20609;-60
2023/05/26 11:38:38;;;;;;;;;;;;;;;39.23;24.81;96813.22;5004178;28;19964;-59
2023/05/26 11:41:08;;;;;;;;;;;;;;;38.58;25.39;96814.75;5000287;28;19983;-59
2023/05/26 11:43:37;;;;;;;;;;;;;;;39.06;25.12;96821.41;5004058;28;19936;-59
2023/05/26 11:46:06;;;;;;;;;;;;;;;39.42;23.93;96809.38;5000205;28;19980;-57
2023/05/26 11:48:39;;;;;;;;;;;;;;;40.35;24.16;96811.63;4998477;28;19961;-58
2023/05/26 11:51:07;;;;;;;;;;;;;;;39.06;24.27;96810.38;4994272;28;19963;-60
2023/05/26 11:53:36;;;;;;;;;;;;;;;40.85;22.92;96799.94;4998585;28;19965;-59
2023/05/26 11:56:05;;;;;;;;;;;;;;;39.04;24.50;96807.97;4997642;28;19972;-57
2023/05/26 11:58:35;;;;;;;;;;;;;;;38.95;24.76;96807.09;4999817;28;19964;-56
2023/05/26 12:01:03;;;;;;;;;;;;;;;40.27;23.31;96810.50;5000598;28;19957;-61
2023/05/26 12:03:36;;;;;;;;;;;;;;;39.74;25.18;96813.63;5003605;28;19956;-59
2023/05/26 12:06:08;;;;;;;;;;;;;;;39.76;24.67;96814.13;4996565;28;19960;-60
2023/05/26 12:08:45;;;;;;;;;;;;;;;39.73;25.11;96810.06;4994398;28;19972;-60
2023/05/26 12:11:17;;;;;;;;;;;;;;;39.76;24.36;96806.66;4997156;28;19922;-61
2023/05/26 12:13:48;;;;;;;;;;;;;;;39.93;23.94;96803.06;4994466;28;19964;-57
2023/05/26 12:16:23;;;;;;;;;;;;;;;39.10;24.36;96806.69;4993651;28;19953;-56
2023/05/26 12:18:51;;;;;;;;;;;;;;;40.27;24.33;96801.41;4998128;28;20504;-56
2023/05/26 12:21:20;;;;;;;;;;;;;;;37.87;25.13;96800.78;4999323;28;19965;-54
2023/05/26 12:23:48;;;;;;;;;;;;;;;39.16;24.24;96799.03;4988928;28;19965;-57
2023/05/26 12:26:16;;;;;;;;;;;;;;;40.20;23.27;96796.38;5000820;28;20413;-57
2023/05/26 12:28:44;;;;;;;;;;;;;;;39.75;23.56;96799.50;4998179;28;20369;-57
2023/05/26 12:31:14;;;;;;;;;;;;;;;39.46;24.12;96802.06;4999562;28;19957;-59
2023/05/26 12:33:42;;;;;;;;;;;;;;;38.41;25.50;96801.69;4995174;28;19961;-55
2023/05/26 12:36:10;;;;;;;;;;;;;;;36.68;26.15;96792.59;4997978;28;20437;-56
2023/05/26 12:38:41;;;;;;;;;;;;;;;38.47;25.35;96788.56;4998904;28;19961;-56
2023/05/26 12:41:09;;;;;;;;;;;;;;;38.21;25.63;96791.16;5000218;28;19975;-58
2023/05/26 12:43:38;;;;;;;;;;;;;;;39.31;25.64;96789.53;4998767;28;19959;-58
2023/05/26 12:46:06;;;;;;;;;;;;;;;37.81;25.28;96801.22;4993693;28;20417;-54
2023/05/26 12:48:36;;;;;;;;;;;;;;;37.86;26.04;96790.09;4993367;28;19985;-60
2023/05/26 12:51:05;;;;;;;;;;;;;;;37.82;25.10;96800.94;4999875;28;20012;-62
2023/05/26 12:53:33;;;;;;;;;;;;;;;37.34;25.93;96790.44;4996141;28;19968;-58
2023/05/26 12:56:01;;;;;;;;;;;;;;;37.89;25.49;96800.47;4998396;28;19991;-58